Strona główna
METAR-TAF:

METAR-TAF

Lotnisko :

Cleveland, Ohio, Stany Zjednoczone

Szerokość geograficzna: 41-31-32N, Długość geograficzna: 081-40-08W, wysokość: 178 m

Aktualna obserwacja pogody

Raport powstał 1 godzina i 0 minut temu, godzina 09:53 UTC
Wiatr 11 kt od południe
Temperatura 6°C
Wilgotność 49%
Ciśnienie 1014 hPa
Widzialność: 16.1 km
bezchmurnie

METAR: KBKL 240953Z AUTO 19011KT 10SM CLR 06/M04 A2993 RMK AO2 SLP139 T00611044

czas: 05:53 (10:53 UTC)


TAF: brakujący

Obserwacja i prognoza pogody dla ponad 4000 lotnisk (raport METAR i TAF).

Dostępne stacje oznaczono żółtymi i czerwonymi punktami na mapie.

Najedź kursorem aby zobaczyć nazwę stacji.

Kliknij aby zobaczyć obserwacje i prognozy pogody.

Aby zmienić mapę: kliknij na zielony przycisk z czarnym krzyżykiem, aby powiększyć; na zielony przycisk z myślnikiem, aby pomniejszyć; na zielone strzałki, aby przejść do map sąsiednich.


METAR-TAF: